Time;durP1;ratioP1;P1;durP2;ratioP2;P2;SDS_P1;SDS_P2;PMS_P1;PMS_P2;Temp;Humidity;BMP_temperature;BMP_pressure;BME280_temperature;BME280_humidity;BME280_pressure;Samples;Min_cycle;Max_cycle;Signal;HPM_P1;HPM_P2
2022/06/02 00:00:05;;;;;;;;;;;;;;;10.87;100.00;95947.94;1034858;28;20274;-72
2022/06/02 00:00:47;;;;;;;;;;;;;;;10.87;100.00;95942.69;1026612;28;19906;-71
2022/06/02 00:01:17;;;;;;;;;;;;;;;10.87;100.00;95952.41;1037296;28;20484;-74
2022/06/02 00:01:59;;;;;;;;;;;;;;;10.85;100.00;95944.75;1038956;28;19912;-74
2022/06/02 00:02:39;;;;;;;;;;;;;;;10.87;100.00;95953.19;1047268;28;19915;-72
2022/06/02 00:03:09;;;;;;;;;;;;;;;10.84;100.00;95959.72;1043173;28;19909;-74
2022/06/02 00:03:48;;;;;;;;;;;;;;;10.81;100.00;95955.00;1032098;28;19910;-73
2022/06/02 00:04:38;;;;;;;;;;;;;;;10.84;100.00;95959.72;1031026;28;19905;-73
2022/06/02 00:05:10;;;;;;;;;;;;;;;10.87;100.00;95958.44;1030411;28;19916;-73
2022/06/02 00:05:50;;;;;;;;;;;;;;;10.81;100.00;95960.25;1035005;28;19992;-73
2022/06/02 00:06:39;;;;;;;;;;;;;;;10.83;100.00;95962.59;1039013;28;19910;-72
2022/06/02 00:07:24;;;;;;;;;;;;;;;10.82;100.00;95967.06;1038808;28;20059;-73
2022/06/02 00:07:59;;;;;;;;;;;;;;;10.85;100.00;95960.50;1039037;28;19965;-74
2022/06/02 00:08:32;;;;;;;;;;;;;;;10.83;100.00;95959.97;1035035;28;19969;-73
2022/06/02 00:09:02;;;;;;;;;;;;;;;10.87;100.00;95963.69;1037922;28;19992;-71
2022/06/02 00:09:33;;;;;;;;;;;;;;;10.85;100.00;95963.13;1039112;28;19901;-71
2022/06/02 00:10:18;;;;;;;;;;;;;;;10.87;100.00;95961.06;1039260;28;19909;-74
2022/06/02 00:10:51;;;;;;;;;;;;;;;10.90;100.00;95963.16;1043171;28;19913;-73
2022/06/02 00:11:40;;;;;;;;;;;;;;;10.92;100.00;95962.91;1038180;28;19932;-73
2022/06/02 00:12:14;;;;;;;;;;;;;;;10.95;100.00;95959.75;1038624;28;20394;-73
2022/06/02 00:12:48;;;;;;;;;;;;;;;10.94;100.00;95966.84;1031557;28;19910;-73
2022/06/02 00:13:21;;;;;;;;;;;;;;;10.97;100.00;95968.16;1038336;28;19912;-73
2022/06/02 00:14:13;;;;;;;;;;;;;;;10.95;100.00;95971.03;1038913;28;19910;-75
2022/06/02 00:14:46;;;;;;;;;;;;;;;10.97;100.00;95966.34;1042899;28;20587;-73
2022/06/02 00:15:16;;;;;;;;;;;;;;;10.98;100.00;95964.50;1043374;28;20290;-73
2022/06/02 00:15:52;;;;;;;;;;;;;;;10.98;100.00;95970.53;1042877;28;19924;-73
2022/06/02 00:16:27;;;;;;;;;;;;;;;10.98;100.00;95965.28;1034557;28;19909;-71
2022/06/02 00:16:59;;;;;;;;;;;;;;;10.99;100.00;95966.06;1026843;28;19933;-73
2022/06/02 00:17:42;;;;;;;;;;;;;;;10.97;100.00;95963.72;1022607;28;19918;-74
2022/06/02 00:18:16;;;;;;;;;;;;;;;10.99;100.00;95966.84;1028049;28;20426;-70
2022/06/02 00:18:51;;;;;;;;;;;;;;;11.01;100.00;95970.00;1035273;28;20009;-74
2022/06/02 00:19:44;;;;;;;;;;;;;;;11.01;100.00;95970.00;1037681;28;20509;-73
2022/06/02 00:20:24;;;;;;;;;;;;;;;11.00;100.00;95963.19;1022474;29;20395;-74
2022/06/02 00:20:54;;;;;;;;;;;;;;;11.00;100.00;95970.25;1023771;28;19911;-72
2022/06/02 00:21:29;;;;;;;;;;;;;;;11.03;100.00;95967.94;1038464;28;20004;-70
2022/06/02 00:22:05;;;;;;;;;;;;;;;11.02;100.00;95973.41;1040789;28;19999;-74
2022/06/02 00:22:56;;;;;;;;;;;;;;;11.02;100.00;95971.56;1042909;28;19908;-73
2022/06/02 00:23:41;;;;;;;;;;;;;;;11.04;100.00;95977.38;1035704;28;19914;-74
2022/06/02 00:24:28;;;;;;;;;;;;;;;11.08;100.00;95981.06;1042848;28;20602;-73
2022/06/02 00:25:04;;;;;;;;;;;;;;;11.09;100.00;95981.84;1043106;28;19979;-73
2022/06/02 00:25:52;;;;;;;;;;;;;;;11.09;100.00;95980.00;1038845;28;19997;-71
2022/06/02 00:26:31;;;;;;;;;;;;;;;11.12;100.00;95980.53;1034530;28;19910;-71
2022/06/02 00:27:05;;;;;;;;;;;;;;;11.11;100.00;95984.22;1038722;28;19912;-74
2022/06/02 00:27:38;;;;;;;;;;;;;;;11.13;100.00;95976.84;1041608;28;19956;-74
2022/06/02 00:28:23;;;;;;;;;;;;;;;11.15;100.00;95980.03;1038834;28;20434;-72
2022/06/02 00:29:08;;;;;;;;;;;;;;;11.17;100.00;95981.34;1042675;28;19985;-73
2022/06/02 00:29:44;;;;;;;;;;;;;;;11.15;100.00;95980.81;1043052;28;20377;-74
2022/06/02 00:30:14;;;;;;;;;;;;;;;11.15;100.00;95975.56;1043037;28;19913;-73
2022/06/02 00:30:56;;;;;;;;;;;;;;;11.13;100.00;95972.38;1042729;28;19905;-72
2022/06/02 00:31:31;;;;;;;;;;;;;;;11.15;100.00;95982.66;1042540;28;19973;-72
2022/06/02 00:32:07;;;;;;;;;;;;;;;11.14;100.00;95983.72;1038567;28;19909;-73
2022/06/02 00:32:37;;;;;;;;;;;;;;;11.12;100.00;95983.16;1034826;28;19956;-73
2022/06/02 00:33:07;;;;;;;;;;;;;;;11.12;100.00;95986.56;1034622;28;20527;-74
2022/06/02 00:33:41;;;;;;;;;;;;;;;11.11;100.00;95985.00;1035654;28;20005;-73
2022/06/02 00:34:16;;;;;;;;;;;;;;;11.12;100.00;95985.78;1036680;28;19909;-72
2022/06/02 00:34:56;;;;;;;;;;;;;;;11.09;100.00;95987.88;1038997;28;19959;-74
2022/06/02 00:35:35;;;;;;;;;;;;;;;11.09;100.00;95984.47;1038945;28;19971;-71
2022/06/02 00:36:10;;;;;;;;;;;;;;;11.07;100.00;95984.72;1034632;28;20353;-71
2022/06/02 00:36:44;;;;;;;;;;;;;;;11.08;100.00;95991.56;1033664;28;19910;-73
2022/06/02 00:37:17;;;;;;;;;;;;;;;11.03;100.00;95983.69;1030657;28;20319;-74
2022/06/02 00:37:49;;;;;;;;;;;;;;;11.01;100.00;95985.75;1034663;28;19917;-73
2022/06/02 00:38:35;;;;;;;;;;;;;;;11.00;100.00;95978.94;1033732;28;20386;-73
2022/06/02 00:39:08;;;;;;;;;;;;;;;10.99;100.00;95990.47;1033132;28;19910;-72
2022/06/02 00:39:38;;;;;;;;;;;;;;;10.97;100.00;95982.09;1034668;28;19951;-74
2022/06/02 00:40:09;;;;;;;;;;;;;;;10.98;100.00;95986.28;1037072;28;20568;-75
2022/06/02 00:40:43;;;;;;;;;;;;;;;10.97;100.00;95984.72;1039383;28;19905;-73
2022/06/02 00:41:22;;;;;;;;;;;;;;;10.97;100.00;95986.56;1038894;28;19913;-73
2022/06/02 00:41:55;;;;;;;;;;;;;;;10.98;100.00;95996.00;1034145;28;19999;-74
2022/06/02 00:42:34;;;;;;;;;;;;;;;10.94;100.00;95985.22;1030798;28;19910;-72
2022/06/02 00:43:22;;;;;;;;;;;;;;;10.93;100.00;95988.91;1033265;28;19910;-73
2022/06/02 00:44:02;;;;;;;;;;;;;;;10.89;100.00;95994.91;1038675;28;19909;-73
2022/06/02 00:44:38;;;;;;;;;;;;;;;10.89;100.00;95987.81;1043008;28;20332;-72
2022/06/02 00:45:10;;;;;;;;;;;;;;;10.90;100.00;95994.66;1039522;28;19920;-73
2022/06/02 00:45:41;;;;;;;;;;;;;;;10.91;100.00;95980.50;1033817;28;19924;-75
2022/06/02 00:46:23;;;;;;;;;;;;;;;10.90;100.00;95994.66;1031490;28;19986;-75
2022/06/02 00:46:58;;;;;;;;;;;;;;;10.94;100.00;95987.84;1034438;28;20346;-73
2022/06/02 00:47:35;;;;;;;;;;;;;;;10.92;100.00;95992.56;1037124;28;19994;-73
2022/06/02 00:48:08;;;;;;;;;;;;;;;10.83;100.00;95979.16;1041867;28;19909;-73
2022/06/02 00:48:41;;;;;;;;;;;;;;;10.92;100.00;95992.56;1038866;28;19921;-74
2022/06/02 00:49:20;;;;;;;;;;;;;;;10.92;100.00;95991.78;1038469;28;19906;-71
2022/06/02 00:50:05;;;;;;;;;;;;;;;10.91;100.00;95993.63;1038602;28;20015;-73
2022/06/02 00:50:36;;;;;;;;;;;;;;;10.93;100.00;95991.53;1042197;28;19959;-74
2022/06/02 00:51:07;;;;;;;;;;;;;;;10.93;100.00;95983.66;1042963;28;19905;-74
2022/06/02 00:51:40;;;;;;;;;;;;;;;10.96;100.00;95984.94;1038090;28;19909;-71
2022/06/02 00:52:10;;;;;;;;;;;;;;;10.96;100.00;95988.38;1034668;28;20345;-73
2022/06/02 00:52:41;;;;;;;;;;;;;;;10.98;100.00;95991.53;1030855;28;19906;-74
2022/06/02 00:53:17;;;;;;;;;;;;;;;10.95;100.00;95986.78;1026648;28;19907;-73
2022/06/02 00:57:30;;;;;;;;;;;;;;;11.01;100.00;95985.75;1027937;28;19914;-73
2022/06/02 00:57:30;;;;;;;;;;;;;;;10.95;100.00;95996.50;1043807;28;20562;-70
2022/06/02 00:58:17;;;;;;;;;;;;;;;10.88;100.00;95999.38;1038391;28;19909;-74
2022/06/02 00:58:51;;;;;;;;;;;;;;;10.87;100.00;95995.19;1039544;28;19917;-74
2022/06/02 00:59:40;;;;;;;;;;;;;;;10.83;100.00;96000.16;1039632;28;19920;-72
2022/06/02 01:00:20;;;;;;;;;;;;;;;10.82;100.00;95995.16;1040276;28;20398;-74
2022/06/02 01:00:51;;;;;;;;;;;;;;;10.80;100.00;96000.66;1039632;28;20011;-74
2022/06/02 01:01:31;;;;;;;;;;;;;;;10.81;100.00;95996.19;1035573;28;19918;-73
2022/06/02 01:02:01;;;;;;;;;;;;;;;10.78;100.00;95994.88;1036833;28;19940;-73
2022/06/02 01:02:34;;;;;;;;;;;;;;;10.80;100.00;96000.66;1036437;28;19944;-74
2022/06/02 01:03:07;;;;;;;;;;;;;;;10.79;100.00;96003.53;1037108;28;20977;-72
2022/06/02 01:03:39;;;;;;;;;;;;;;;10.73;100.00;96000.13;1034086;28;19953;-74
2022/06/02 01:04:10;;;;;;;;;;;;;;;10.72;100.00;95997.75;1031479;28;19961;-74
2022/06/02 01:04:40;;;;;;;;;;;;;;;10.71;100.00;95996.16;1032858;28;20023;-73
2022/06/02 01:05:11;;;;;;;;;;;;;;;10.70;100.00;95999.84;1035935;28;19989;-74
2022/06/02 01:05:50;;;;;;;;;;;;;;;10.65;100.00;95992.72;1035624;28;19905;-73
2022/06/02 01:06:23;;;;;;;;;;;;;;;10.62;100.00;95995.84;1035452;28;19941;-73
2022/06/02 01:07:12;;;;;;;;;;;;;;;10.60;100.00;95996.13;1035371;28;20370;-74
2022/06/02 01:07:48;;;;;;;;;;;;;;;10.58;100.00;95995.56;1039675;28;19902;-73
2022/06/02 01:08:37;;;;;;;;;;;;;;;10.55;100.00;95998.72;1038931;28;20003;-74
2022/06/02 01:09:19;;;;;;;;;;;;;;;10.57;100.00;95996.63;1043642;28;20279;-72
2022/06/02 01:10:12;;;;;;;;;;;;;;;10.59;100.00;95991.91;1035454;28;19960;-73
2022/06/02 01:10:43;;;;;;;;;;;;;;;10.61;100.00;95992.44;1026351;28;19914;-71
2022/06/02 01:11:16;;;;;;;;;;;;;;;10.59;100.00;95989.28;1027161;28;19910;-72
2022/06/02 01:11:51;;;;;;;;;;;;;;;10.57;100.00;95990.59;1040342;28;19958;-73
2022/06/02 01:12:31;;;;;;;;;;;;;;;10.53;100.00;95987.69;1047022;28;19908;-73
2022/06/02 01:13:16;;;;;;;;;;;;;;;10.54;100.00;95986.66;1045698;28;19920;-74
2022/06/02 01:14:02;;;;;;;;;;;;;;;10.51;100.00;95989.78;1043964;28;20573;-72
2022/06/02 01:14:32;;;;;;;;;;;;;;;10.49;100.00;95984.00;1040535;28;20400;-73
2022/06/02 01:15:05;;;;;;;;;;;;;;;10.46;100.00;95989.78;1039648;28;19905;-73
2022/06/02 01:15:35;;;;;;;;;;;;;;;10.47;100.00;95988.72;1041476;28;19983;-74
2022/06/02 01:16:11;;;;;;;;;;;;;;;10.46;100.00;95983.72;1043732;28;19909;-74
2022/06/02 01:16:44;;;;;;;;;;;;;;;10.44;100.00;95991.06;1042682;28;20011;-73
2022/06/02 01:17:15;;;;;;;;;;;;;;;10.47;100.00;95986.09;1035556;28;20519;-73
2022/06/02 01:17:51;;;;;;;;;;;;;;;10.45;100.00;95980.31;1035551;28;19902;-73
2022/06/02 01:18:30;;;;;;;;;;;;;;;10.47;100.00;95986.09;1036900;28;19955;-72
2022/06/02 01:19:19;;;;;;;;;;;;;;;10.45;100.00;95980.31;1041516;28;19912;-73
2022/06/02 01:19:53;;;;;;;;;;;;;;;10.46;100.00;95979.28;1044108;28;20344;-73
2022/06/02 01:20:26;;;;;;;;;;;;;;;10.43;100.00;95978.97;1039625;28;19917;-73
2022/06/02 01:20:56;;;;;;;;;;;;;;;10.40;100.00;95976.88;1039370;28;19909;-74
2022/06/02 01:21:27;;;;;;;;;;;;;;;10.38;100.00;95983.16;1034907;28;20422;-73
2022/06/02 01:22:16;;;;;;;;;;;;;;;10.36;100.00;95979.19;1035903;28;19909;-73
2022/06/02 01:23:05;;;;;;;;;;;;;;;10.31;100.00;95981.81;1039659;28;20004;-72
2022/06/02 01:23:47;;;;;;;;;;;;;;;10.27;100.00;95978.13;1044073;28;19991;-73
2022/06/02 01:24:29;;;;;;;;;;;;;;;10.25;100.00;95980.94;1043957;28;20409;-72
2022/06/02 01:25:14;;;;;;;;;;;;;;;10.24;100.00;95983.84;1043718;28;19956;-73
2022/06/02 01:25:53;;;;;;;;;;;;;;;10.21;100.00;95976.47;1043630;28;20012;-72
2022/06/02 01:26:36;;;;;;;;;;;;;;;10.20;100.00;95982.78;1039286;28;19958;-73
2022/06/02 01:27:29;;;;;;;;;;;;;;;10.19;100.00;95978.56;1026965;28;19914;-73
2022/06/02 01:28:05;;;;;;;;;;;;;;;10.22;100.00;95983.28;1025721;28;19911;-74
2022/06/02 01:28:35;;;;;;;;;;;;;;;10.18;100.00;95976.97;1031222;28;19909;-71
2022/06/02 01:29:13;;;;;;;;;;;;;;;10.16;100.00;95979.88;1041674;28;19980;-73
2022/06/02 01:30:02;;;;;;;;;;;;;;;10.17;100.00;95985.91;1031382;28;20102;-74
2022/06/02 01:30:41;;;;;;;;;;;;;;;10.13;100.00;95985.63;1034807;28;19924;-72
2022/06/02 01:31:15;;;;;;;;;;;;;;;10.14;100.00;95987.19;1035494;28;19998;-73
2022/06/02 01:31:48;;;;;;;;;;;;;;;10.11;100.00;95988.47;1038818;28;19909;-73
2022/06/02 01:32:20;;;;;;;;;;;;;;;10.10;100.00;95984.28;1039659;28;19912;-72
2022/06/02 01:32:52;;;;;;;;;;;;;;;10.08;100.00;95986.38;1047498;28;19971;-73
2022/06/02 01:33:29;;;;;;;;;;;;;;;10.05;100.00;95992.09;1042381;28;19905;-71
2022/06/02 01:33:59;;;;;;;;;;;;;;;10.04;100.00;95987.91;1039590;28;19939;-73
2022/06/02 01:34:38;;;;;;;;;;;;;;;10.05;100.00;95986.09;1039457;28;19936;-72
2022/06/02 01:35:10;;;;;;;;;;;;;;;10.04;100.00;95987.13;1035401;28;19905;-74
2022/06/02 01:35:52;;;;;;;;;;;;;;;10.02;100.00;95992.59;1043532;28;19917;-72
2022/06/02 01:36:25;;;;;;;;;;;;;;;10.04;100.00;95987.13;1039571;28;19913;-74
2022/06/02 01:37:14;;;;;;;;;;;;;;;10.13;100.00;95991.66;1035474;28;19917;-74
2022/06/02 01:37:48;;;;;;;;;;;;;;;10.06;100.00;95980.59;1027060;28;19914;-72
2022/06/02 01:38:21;;;;;;;;;;;;;;;10.11;100.00;95992.94;1031468;28;19910;-73
2022/06/02 01:38:54;;;;;;;;;;;;;;;10.12;100.00;95986.66;1037327;28;20003;-71
2022/06/02 01:39:30;;;;;;;;;;;;;;;10.11;100.00;95992.94;1035129;28;19917;-73
2022/06/02 01:40:04;;;;;;;;;;;;;;;10.10;100.00;95994.00;1035122;28;20708;-72
2022/06/02 01:40:34;;;;;;;;;;;;;;;10.08;100.00;95988.97;1033054;28;19916;-74
2022/06/02 01:41:25;;;;;;;;;;;;;;;10.07;100.00;95992.66;1036695;28;19988;-73
2022/06/02 01:42:10;;;;;;;;;;;;;;;10.04;100.00;95990.53;1026574;28;19911;-73
2022/06/02 01:42:54;;;;;;;;;;;;;;;10.01;100.00;95996.28;1031729;28;19913;-72
2022/06/02 01:43:28;;;;;;;;;;;;;;;9.99;100.00;95990.50;1042505;28;19956;-71
2022/06/02 01:44:03;;;;;;;;;;;;;;;10.07;100.00;95987.41;1043585;28;19909;-72
2022/06/02 01:44:58;;;;;;;;;;;;;;;10.09;100.00;95992.38;1042519;28;20007;-74
2022/06/02 01:45:58;;;;;;;;;;;;;;;10.03;100.00;96001.28;1030530;28;19918;-69
2022/06/02 01:46:34;;;;;;;;;;;;;;;10.02;100.00;96005.72;1023142;28;20504;-73
2022/06/02 01:47:21;;;;;;;;;;;;;;;10.00;100.00;95997.34;1036935;28;20456;-71
2022/06/02 01:48:03;;;;;;;;;;;;;;;9.98;100.00;95999.41;1039475;28;20269;-73
2022/06/02 01:48:42;;;;;;;;;;;;;;;9.97;100.00;96007.53;1035153;28;20575;-73
2022/06/02 01:49:23;;;;;;;;;;;;;;;9.95;100.00;96005.16;1031345;28;20002;-70
2022/06/02 01:49:56;;;;;;;;;;;;;;;9.95;100.00;96004.38;1026973;28;20257;-74
2022/06/02 01:50:27;;;;;;;;;;;;;;;9.93;100.00;96007.25;1027400;28;20375;-73
2022/06/02 01:50:57;;;;;;;;;;;;;;;9.99;100.00;96000.97;1033259;28;19906;-71
2022/06/02 01:51:27;;;;;;;;;;;;;;;9.99;100.00;96006.22;1035173;28;20405;-72
2022/06/02 01:51:58;;;;;;;;;;;;;;;10.01;100.00;95998.91;1039272;28;20084;-73
2022/06/02 01:52:33;;;;;;;;;;;;;;;9.95;100.00;95999.91;1043430;28;19909;-73
2022/06/02 01:53:31;;;;;;;;;;;;;;;9.85;100.00;95981.50;1044143;28;19905;-74
2022/06/02 01:54:09;;;;;;;;;;;;;;;10.02;100.00;95997.84;1039639;28;20422;-73
2022/06/02 01:54:50;;;;;;;;;;;;;;;10.06;100.00;96001.56;1042344;28;19959;-73
2022/06/02 01:55:23;;;;;;;;;;;;;;;10.08;100.00;95999.47;1044001;28;19955;-73
2022/06/02 01:56:15;;;;;;;;;;;;;;;10.11;100.00;96004.22;1044042;28;19909;-74
2022/06/02 01:56:53;;;;;;;;;;;;;;;10.10;100.00;96007.88;1035408;28;19964;-73
2022/06/02 01:57:34;;;;;;;;;;;;;;;10.10;100.00;96010.50;1039767;28;20438;-72
2022/06/02 01:58:15;;;;;;;;;;;;;;;10.08;100.00;96004.72;1035583;28;19968;-73
2022/06/02 01:58:46;;;;;;;;;;;;;;;10.04;100.00;96003.66;1039388;28;20338;-72
2022/06/02 01:59:16;;;;;;;;;;;;;;;10.00;100.00;96007.81;1039725;28;20064;-71
2022/06/02 01:59:52;;;;;;;;;;;;;;;10.07;100.00;96007.59;1041251;28;19913;-74
2022/06/02 02:00:23;;;;;;;;;;;;;;;10.09;100.00;96016.00;1043591;28;19917;-73
2022/06/02 02:00:59;;;;;;;;;;;;;;;10.10;100.00;96013.13;1039619;28;19949;-72
2022/06/02 02:01:35;;;;;;;;;;;;;;;10.12;100.00;96007.63;1034962;28;19910;-74
2022/06/02 02:02:24;;;;;;;;;;;;;;;10.14;100.00;96008.16;1032439;28;19961;-72
2022/06/02 02:02:59;;;;;;;;;;;;;;;10.15;100.00;96013.16;1035377;28;19917;-74
2022/06/02 02:03:49;;;;;;;;;;;;;;;10.18;100.00;96009.25;1039511;28;19920;-72
2022/06/02 02:04:24;;;;;;;;;;;;;;;10.25;100.00;96009.81;1039937;28;20395;-73
2022/06/02 02:04:54;;;;;;;;;;;;;;;10.27;100.00;96012.22;1039501;28;20329;-73
2022/06/02 02:05:28;;;;;;;;;;;;;;;10.26;100.00;96006.19;1035618;28;19916;-72
2022/06/02 02:06:01;;;;;;;;;;;;;;;10.30;100.00;96011.72;1036837;28;19933;-73
2022/06/02 02:06:39;;;;;;;;;;;;;;;10.27;100.00;96010.38;1040597;28;20504;-73
2022/06/02 02:07:12;;;;;;;;;;;;;;;10.30;100.00;96007.25;1039608;28;19913;-73
2022/06/02 02:08:03;;;;;;;;;;;;;;;10.30;100.00;96009.09;1035784;28;19961;-73
2022/06/02 02:08:42;;;;;;;;;;;;;;;10.29;100.00;96012.75;1039645;28;19960;-71
2022/06/02 02:09:18;;;;;;;;;;;;;;;10.30;100.00;96011.72;1043770;28;19916;-72
2022/06/02 02:09:52;;;;;;;;;;;;;;;10.28;100.00;96009.31;1043779;28;20067;-72
2022/06/02 02:10:26;;;;;;;;;;;;;;;10.26;100.00;96005.38;1039582;28;19951;-72
2022/06/02 02:11:15;;;;;;;;;;;;;;;10.28;100.00;96008.53;1027482;28;19918;-75
2022/06/02 02:11:52;;;;;;;;;;;;;;;10.28;100.00;96011.94;1027084;28;20428;-73
2022/06/02 02:12:31;;;;;;;;;;;;;;;10.32;100.00;96001.75;1031597;28;19926;-72
2022/06/02 02:13:01;;;;;;;;;;;;;;;10.32;100.00;96001.75;1035718;28;20656;-72
2022/06/02 02:13:38;;;;;;;;;;;;;;;10.32;100.00;95999.13;1031736;28;19966;-72
2022/06/02 02:14:11;;;;;;;;;;;;;;;10.33;100.00;96005.97;1031578;28;19937;-72
2022/06/02 02:14:41;;;;;;;;;;;;;;;10.34;100.00;96008.31;1028982;28;19980;-74
2022/06/02 02:15:27;;;;;;;;;;;;;;;10.36;100.00;96000.19;1033869;28;20384;-72
2022/06/02 02:16:02;;;;;;;;;;;;;;;10.34;100.00;96010.16;1031857;28;19933;-72
2022/06/02 02:16:40;;;;;;;;;;;;;;;10.35;100.00;96014.34;1035989;28;19917;-74
2022/06/02 02:17:10;;;;;;;;;;;;;;;10.36;100.00;96011.50;1031435;28;19917;-73
2022/06/02 02:17:40;;;;;;;;;;;;;;;10.36;100.00;96010.69;1029329;28;19918;-73
2022/06/02 02:18:17;;;;;;;;;;;;;;;10.36;100.00;96015.91;1023731;28;20456;-73
2022/06/02 02:18:51;;;;;;;;;;;;;;;10.34;100.00;96018.03;1024244;28;19922;-73
2022/06/02 02:19:39;;;;;;;;;;;;;;;10.33;100.00;96012.00;1030202;28;19973;-73
2022/06/02 02:20:10;;;;;;;;;;;;;;;10.33;100.00;96019.09;1039279;28;19917;-72
2022/06/02 02:20:43;;;;;;;;;;;;;;;10.32;100.00;96009.59;1035584;28;19914;-74
2022/06/02 02:21:13;;;;;;;;;;;;;;;10.31;100.00;96013.28;1035641;28;19919;-72
2022/06/02 02:21:53;;;;;;;;;;;;;;;10.31;100.00;96013.28;1039049;28;19913;-72
2022/06/02 02:22:35;;;;;;;;;;;;;;;10.30;100.00;96016.97;1039857;28;19917;-71
2022/06/02 02:23:24;;;;;;;;;;;;;;;10.28;100.00;96019.81;1042550;28;20059;-71
2022/06/02 02:24:00;;;;;;;;;;;;;;;10.29;100.00;96023.22;1039761;28;19917;-72
2022/06/02 02:24:34;;;;;;;;;;;;;;;10.26;100.00;96029.78;1035790;28;19921;-73
2022/06/02 02:25:15;;;;;;;;;;;;;;;10.26;100.00;96028.97;1031686;28;20350;-72
2022/06/02 02:25:48;;;;;;;;;;;;;;;10.28;100.00;96025.06;1029885;28;20005;-72
2022/06/02 02:26:19;;;;;;;;;;;;;;;10.30;100.00;96017.75;1033816;28;19914;-73
2022/06/02 02:27:01;;;;;;;;;;;;;;;10.30;100.00;96024.81;1037533;28;20335;-73
2022/06/02 02:28:03;;;;;;;;;;;;;;;10.29;100.00;96023.22;1041617;28;19917;-73
2022/06/02 02:28:43;;;;;;;;;;;;;;;10.28;100.00;96022.44;1027366;28;19992;-74
2022/06/02 02:29:20;;;;;;;;;;;;;;;10.29;100.00;96025.84;1032868;28;20394;-72
2022/06/02 02:30:10;;;;;;;;;;;;;;;10.28;100.00;96019.81;1031547;28;19921;-72
2022/06/02 02:30:41;;;;;;;;;;;;;;;10.29;100.00;96023.22;1031510;28;20021;-73
2022/06/02 02:31:14;;;;;;;;;;;;;;;10.29;100.00;96020.59;1031147;28;19949;-71
2022/06/02 02:31:46;;;;;;;;;;;;;;;10.28;100.00;96017.19;1029922;28;19934;-72
2022/06/02 02:32:27;;;;;;;;;;;;;;;10.30;100.00;96016.97;1032630;28;19909;-74
2022/06/02 02:33:16;;;;;;;;;;;;;;;10.30;100.00;96017.75;1031787;28;20012;-74
2022/06/02 02:34:05;;;;;;;;;;;;;;;10.34;100.00;96018.03;1031642;28;20427;-72
2022/06/02 02:34:56;;;;;;;;;;;;;;;10.34;100.00;96018.03;1036712;28;19913;-74
2022/06/02 02:35:40;;;;;;;;;;;;;;;10.37;100.00;96020.16;1039821;28;19960;-71
2022/06/02 02:36:21;;;;;;;;;;;;;;;10.37;100.00;96012.28;1034834;28;19941;-72
2022/06/02 02:36:51;;;;;;;;;;;;;;;10.37;100.00;96012.28;1027728;28;19922;-72
2022/06/02 02:37:27;;;;;;;;;;;;;;;10.37;100.00;96013.06;1027653;28;19918;-72
2022/06/02 02:38:11;;;;;;;;;;;;;;;10.38;100.00;96014.63;1033926;28;19917;-74
2022/06/02 02:38:48;;;;;;;;;;;;;;;10.41;100.00;96015.19;1034430;28;19953;-72
2022/06/02 02:39:41;;;;;;;;;;;;;;;10.42;100.00;96011.50;1035312;28;19944;-72
2022/06/02 02:40:33;;;;;;;;;;;;;;;10.43;100.00;96016.50;1027676;28;20013;-71
2022/06/02 02:41:06;;;;;;;;;;;;;;;10.36;100.00;96002.81;1035762;28;19909;-72
2022/06/02 02:41:38;;;;;;;;;;;;;;;10.46;100.00;96017.81;1037230;28;19955;-73
2022/06/02 02:42:08;;;;;;;;;;;;;;;10.45;100.00;96019.66;1039632;28;19949;-73
2022/06/02 02:42:54;;;;;;;;;;;;;;;10.45;100.00;96018.88;1039983;28;19921;-74
2022/06/02 02:43:25;;;;;;;;;;;;;;;10.44;100.00;96020.72;1037831;28;20016;-73
2022/06/02 02:44:14;;;;;;;;;;;;;;;10.43;100.00;96023.56;1035846;28;19980;-73
2022/06/02 02:44:57;;;;;;;;;;;;;;;10.42;100.00;96020.16;1035596;28;19988;-73
2022/06/02 02:45:28;;;;;;;;;;;;;;;10.43;100.00;96023.56;1035039;28;19917;-70
2022/06/02 02:46:00;;;;;;;;;;;;;;;10.41;100.00;96023.84;1039755;28;19987;-73
2022/06/02 02:46:38;;;;;;;;;;;;;;;10.41;100.00;96029.06;1039589;28;20304;-74
2022/06/02 02:47:11;;;;;;;;;;;;;;;10.41;100.00;96028.28;1041036;28;20404;-72
2022/06/02 02:47:48;;;;;;;;;;;;;;;10.40;100.00;96027.50;1040023;28;19952;-72
2022/06/02 02:48:19;;;;;;;;;;;;;;;10.40;100.00;96027.50;1039694;28;20418;-73
2022/06/02 02:48:58;;;;;;;;;;;;;;;10.37;100.00;96028.81;1039743;28;19921;-73
2022/06/02 02:49:41;;;;;;;;;;;;;;;10.37;100.00;96028.00;1042139;28;19913;-72
2022/06/02 02:50:11;;;;;;;;;;;;;;;10.35;100.00;96030.88;1043726;28;19913;-73
2022/06/02 02:50:43;;;;;;;;;;;;;;;10.35;100.00;96030.09;1039817;28;20036;-73
2022/06/02 02:51:24;;;;;;;;;;;;;;;10.35;100.00;96032.72;1035520;28;19913;-73
2022/06/02 02:52:00;;;;;;;;;;;;;;;10.34;100.00;96039.00;1035121;28;19976;-74
2022/06/02 02:52:33;;;;;;;;;;;;;;;10.34;100.00;96028.53;1035698;28;19965;-72
2022/06/02 02:53:04;;;;;;;;;;;;;;;10.33;100.00;96032.19;1038226;28;19912;-73
2022/06/02 02:53:36;;;;;;;;;;;;;;;10.34;100.00;96039.00;1040994;28;20008;-72
2022/06/02 02:54:25;;;;;;;;;;;;;;;10.33;100.00;96027.72;1043844;28;19955;-73
2022/06/02 02:55:06;;;;;;;;;;;;;;;10.33;100.00;96032.19;1041104;28;19964;-74
2022/06/02 02:55:38;;;;;;;;;;;;;;;10.33;100.00;96032.19;1043859;28;19909;-73
2022/06/02 02:56:22;;;;;;;;;;;;;;;10.35;100.00;96032.72;1039695;28;20285;-72
2022/06/02 02:56:52;;;;;;;;;;;;;;;10.32;100.00;96025.34;1035451;28;19906;-72
2022/06/02 02:57:41;;;;;;;;;;;;;;;10.32;100.00;96030.59;1031745;28;19934;-72
2022/06/02 02:58:11;;;;;;;;;;;;;;;10.30;100.00;96032.69;1035715;28;20334;-75
2022/06/02 02:58:43;;;;;;;;;;;;;;;10.28;100.00;96030.31;1037983;28;19953;-74
2022/06/02 02:59:18;;;;;;;;;;;;;;;10.25;100.00;96036.03;1038189;28;20362;-73
2022/06/02 02:59:56;;;;;;;;;;;;;;;10.23;100.00;96042.56;1037469;28;20286;-72
2022/06/02 03:00:27;;;;;;;;;;;;;;;10.21;100.00;96042.03;1036705;28;19909;-73
2022/06/02 03:01:08;;;;;;;;;;;;;;;10.19;100.00;96036.25;1032605;28;19917;-71
2022/06/02 03:01:40;;;;;;;;;;;;;;;10.15;100.00;96036.75;1027751;28;19909;-74
2022/06/02 03:02:19;;;;;;;;;;;;;;;10.13;100.00;96038.84;1026064;28;19910;-72
2022/06/02 03:03:08;;;;;;;;;;;;;;;10.10;100.00;96031.47;1032654;28;19909;-72
2022/06/02 03:03:43;;;;;;;;;;;;;;;10.08;100.00;96044.03;1038331;28;20004;-72
2022/06/02 03:04:13;;;;;;;;;;;;;;;10.06;100.00;96037.47;1035308;28;20016;-72
2022/06/02 03:04:50;;;;;;;;;;;;;;;10.06;100.00;96034.84;1038542;28;19915;-73
2022/06/02 03:05:27;;;;;;;;;;;;;;;10.03;100.00;96035.38;1031012;28;19909;-72
2022/06/02 03:06:06;;;;;;;;;;;;;;;10.03;100.00;96038.78;1030421;28;19997;-72
2022/06/02 03:06:37;;;;;;;;;;;;;;;10.02;100.00;96036.38;1031098;28;19906;-72
2022/06/02 03:07:07;;;;;;;;;;;;;;;10.02;100.00;96034.56;1030866;28;19917;-73
2022/06/02 03:07:38;;;;;;;;;;;;;;;10.01;100.00;96035.59;1031222;28;19898;-71
2022/06/02 03:08:10;;;;;;;;;;;;;;;10.04;100.00;96029.06;1031247;28;19913;-72
2022/06/02 03:08:59;;;;;;;;;;;;;;;10.01;100.00;96029.56;1039468;28;19913;-73
2022/06/02 03:09:40;;;;;;;;;;;;;;;10.01;100.00;96032.19;1043187;28;19999;-72
2022/06/02 03:10:18;;;;;;;;;;;;;;;10.02;100.00;96034.56;1043482;28;19917;-73
2022/06/02 03:10:50;;;;;;;;;;;;;;;10.02;100.00;96031.94;1035096;28;20004;-72
2022/06/02 03:11:41;;;;;;;;;;;;;;;10.04;100.00;96034.31;1031734;28;19914;-72
2022/06/02 03:12:11;;;;;;;;;;;;;;;10.04;100.00;96032.47;1035021;28;19917;-72
2022/06/02 03:12:42;;;;;;;;;;;;;;;10.05;100.00;96035.91;1038339;28;19921;-72
2022/06/02 03:13:21;;;;;;;;;;;;;;;10.02;100.00;96031.94;1042197;28;19913;-71
2022/06/02 03:14:18;;;;;;;;;;;;;;;10.02;100.00;96034.56;1043570;28;19909;-72
2022/06/02 03:14:48;;;;;;;;;;;;;;;10.02;100.00;96037.19;1030633;28;19914;-73
2022/06/02 03:15:19;;;;;;;;;;;;;;;10.01;100.00;96040.84;1032397;28;19960;-72
2022/06/02 03:15:53;;;;;;;;;;;;;;;10.01;100.00;96040.06;1034880;28;19925;-72
2022/06/02 03:16:23;;;;;;;;;;;;;;;9.99;100.00;96037.69;1027360;28;20468;-72